Dionysios Z — SVA7578 — position and weather

sailwx.info

Track history (hours):
 
Tides and Currents Weather Stations Pressure Air Temp Water Temp Dewpoint Dewpoint Depression Visibility Wind Speed Wind Dir Waves Ship Positions

Dionysios Z

Last reported at 2017-Nov-10 08:59 UTC. Time now 2017-Nov-25 11:51 UTC.
Position N 37°42' E 023°49'.
Warning: this ship's position is 15 days out of date.

Length 40 m; draft 4.6 m.

Type: Tug. MMSI: 241484000.

Date/timePositionNaut miles runAvg speedWind from/ knotsBaromVisibWave heightAir tempDewpointWater temp
2017-Nov-10 08:59N 37°42' E 023°49'5 9.9
2017-Nov-10 08:30N 37°45' E 023°45'5 9.8
2017-Nov-10 08:01N 37°50' E 023°41'5 9.6
2017-Nov-10 07:30N 37°54' E 023°38'3 6.9
2017-Nov-10 07:00N 37°57' E 023°36'0 0.0
2017-Nov-10 06:31N 37°57' E 023°36'0 0.0
2017-Nov-10 06:01N 37°57' E 023°36'0 0.0
2017-Nov-10 05:31N 37°57' E 023°36'3 6.5
2017-Nov-10 05:01N 37°59' E 023°33'3 0.1
2017-Nov-08 13:05N 38°02' E 023°32'1 8.5
2017-Nov-08 13:00N 38°02' E 023°33'0 0.9
2017-Nov-08 12:30N 38°02' E 023°33'1 1.0
2017-Nov-08 12:00N 38°02' E 023°32'0 0.5
2017-Nov-08 11:31N 38°02' E 023°32'0 0.0
2017-Nov-08 11:00N 38°02' E 023°32'0 0.0
2017-Nov-08 10:30N 38°02' E 023°32'0 0.0
2017-Nov-08 10:00N 38°02' E 023°32'0 0.0
2017-Nov-08 09:30N 38°02' E 023°32'0 0.0
2017-Nov-08 09:00N 38°02' E 023°32'0 0.0
2017-Nov-08 08:30N 38°02' E 023°32'0 0.0
2017-Nov-08 08:00N 38°02' E 023°32'0 0.0
2017-Nov-08 07:31N 38°02' E 023°32'0 0.0
2017-Nov-08 07:00N 38°02' E 023°32'0 0.0
2017-Nov-07 05:04N 38°02' E 023°32'0 0.1
2017-Nov-07 05:00N 38°02' E 023°32'0 0.0
2017-Nov-07 04:30N 38°02' E 023°32'0 0.0
2017-Nov-07 04:00N 38°02' E 023°32'0 0.0
2017-Nov-07 03:30N 38°02' E 023°32'0 0.0
2017-Nov-07 03:00N 38°02' E 023°32'0 0.0
2017-Nov-07 02:30N 38°02' E 023°32'0 0.0
2017-Nov-07 02:00N 38°02' E 023°32'0 0.0
2017-Nov-07 01:30N 38°02' E 023°32'0 0.0
2017-Nov-07 01:00N 38°02' E 023°32'0 0.0
2017-Nov-07 00:30N 38°02' E 023°32'0 0.0
2017-Nov-07 00:00N 38°02' E 023°32'0 0.0
2017-Nov-06 23:30N 38°02' E 023°32'0 0.0
2017-Nov-06 23:00N 38°02' E 023°32'0 0.0
2017-Nov-06 22:30N 38°02' E 023°32'0 0.0
2017-Nov-06 22:00N 38°02' E 023°32'0 0.0
2017-Nov-06 21:30N 38°02' E 023°32'0 0.0
2017-Nov-06 21:00N 38°02' E 023°32'0 0.0
2017-Nov-06 20:30N 38°02' E 023°32'0 0.0
2017-Nov-05 18:54N 38°02' E 023°32'1 2.9
2017-Nov-05 18:30N 38°02' E 023°31'0 0.3
2017-Nov-05 18:01N 38°02' E 023°31'2 0.1
2017-Nov-04 14:49N 38°02' E 023°33'2 7.2
2017-Nov-04 14:30N 38°01' E 023°36'0 0.1
2017-Nov-04 14:00N 38°01' E 023°36'1 1.6
2017-Nov-04 13:30N 38°01' E 023°35'2 4.5
2017-Nov-04 13:00N 38°02' E 023°32'0 0.0
2017-Nov-04 12:30N 38°02' E 023°32'0 0.0
2017-Nov-04 12:00N 38°02' E 023°32'0 0.0
2017-Nov-04 11:30N 38°02' E 023°32'0 0.0
2017-Nov-04 11:00N 38°02' E 023°32'1 2.8
2017-Nov-04 10:30N 38°02' E 023°30'0 0.0
2017-Nov-04 10:00N 38°02' E 023°30'0 0.0
2017-Nov-04 09:30N 38°02' E 023°30'0 0.4
2017-Nov-04 09:00N 38°02' E 023°31'0 0.0
2017-Nov-04 08:30N 38°02' E 023°31'0 0.0
2017-Nov-04 08:00N 38°02' E 023°31'0 0.3
2017-Nov-04 07:30N 38°02' E 023°31'1 1.8
2017-Nov-04 07:00N 38°01' E 023°31'1 0.1
2017-Nov-03 12:36N 38°02' E 023°32'0 0.1
2017-Nov-03 12:30N 38°02' E 023°32'0 0.4
2017-Nov-03 12:00N 38°02' E 023°32'0 0.4
2017-Nov-03 11:30N 38°02' E 023°32'0 0.0
2017-Nov-03 11:00N 38°02' E 023°32'0 0.0
2017-Nov-03 10:30N 38°02' E 023°32'0 0.0
2017-Nov-03 10:00N 38°02' E 023°32'0 0.0
2017-Nov-03 09:30N 38°02' E 023°32'0 0.0
2017-Nov-03 09:00N 38°02' E 023°32'0 0.0
2017-Nov-03 08:30N 38°02' E 023°32'0 0.0
2017-Nov-03 08:00N 38°02' E 023°32'0 0.0
2017-Nov-03 07:30N 38°02' E 023°32'0 0.0
2017-Nov-03 07:00N 38°02' E 023°32'0 0.0
2017-Nov-03 06:30N 38°02' E 023°32'0 0.0
2017-Nov-03 06:00N 38°02' E 023°32'0 0.0
2017-Nov-03 05:30N 38°02' E 023°32'2 4.0
2017-Nov-03 05:00N 38°00' E 023°33'4 7.1
2017-Nov-03 04:30N 37°57' E 023°35'2 4.8
2017-Nov-03 04:00N 37°56' E 023°38'0 0.2
2017-Nov-03 03:30N 37°56' E 023°38'1 1.6
2017-Nov-03 03:01N 37°56' E 023°37'1 1.8
2017-Nov-03 02:30N 37°56' E 023°36'1 1.0
2017-Nov-03 02:00N 37°57' E 023°36'  
Track history (hours):
 
Tides and Currents Weather Stations Pressure Air Temp Water Temp Dewpoint Dewpoint Depression Visibility Wind Speed Wind Dir Waves Ship Positions

Dionysios Z

Last reported at 2017-Nov-10 08:59 UTC. Time now 2017-Nov-25 11:51 UTC.
Position N 37°42' E 023°49'.
Warning: this ship's position is 15 days out of date.

Length 40 m; draft 4.6 m.

Type: Tug. MMSI: 241484000.

Date/timePositionNaut miles runAvg speedWind from/ knotsBaromVisibWave heightAir tempDewpointWater temp
2017-Nov-10 08:59N 37°42' E 023°49'5 9.9
2017-Nov-10 08:30N 37°45' E 023°45'5 9.8
2017-Nov-10 08:01N 37°50' E 023°41'5 9.6
2017-Nov-10 07:30N 37°54' E 023°38'3 6.9
2017-Nov-10 07:00N 37°57' E 023°36'0 0.0
2017-Nov-10 06:31N 37°57' E 023°36'0 0.0
2017-Nov-10 06:01N 37°57' E 023°36'0 0.0
2017-Nov-10 05:31N 37°57' E 023°36'3 6.5
2017-Nov-10 05:01N 37°59' E 023°33'3 0.1
2017-Nov-08 13:05N 38°02' E 023°32'1 8.5
2017-Nov-08 13:00N 38°02' E 023°33'0 0.9
2017-Nov-08 12:30N 38°02' E 023°33'1 1.0
2017-Nov-08 12:00N 38°02' E 023°32'0 0.5
2017-Nov-08 11:31N 38°02' E 023°32'0 0.0
2017-Nov-08 11:00N 38°02' E 023°32'0 0.0
2017-Nov-08 10:30N 38°02' E 023°32'0 0.0
2017-Nov-08 10:00N 38°02' E 023°32'0 0.0
2017-Nov-08 09:30N 38°02' E 023°32'0 0.0
2017-Nov-08 09:00N 38°02' E 023°32'0 0.0
2017-Nov-08 08:30N 38°02' E 023°32'0 0.0
2017-Nov-08 08:00N 38°02' E 023°32'0 0.0
2017-Nov-08 07:31N 38°02' E 023°32'0 0.0
2017-Nov-08 07:00N 38°02' E 023°32'0 0.0
2017-Nov-07 05:04N 38°02' E 023°32'0 0.1
2017-Nov-07 05:00N 38°02' E 023°32'0 0.0
2017-Nov-07 04:30N 38°02' E 023°32'0 0.0
2017-Nov-07 04:00N 38°02' E 023°32'0 0.0
2017-Nov-07 03:30N 38°02' E 023°32'0 0.0
2017-Nov-07 03:00N 38°02' E 023°32'0 0.0
2017-Nov-07 02:30N 38°02' E 023°32'0 0.0
2017-Nov-07 02:00N 38°02' E 023°32'0 0.0
2017-Nov-07 01:30N 38°02' E 023°32'0 0.0
2017-Nov-07 01:00N 38°02' E 023°32'0 0.0
2017-Nov-07 00:30N 38°02' E 023°32'0 0.0
2017-Nov-07 00:00N 38°02' E 023°32'0 0.0
2017-Nov-06 23:30N 38°02' E 023°32'0 0.0
2017-Nov-06 23:00N 38°02' E 023°32'0 0.0
2017-Nov-06 22:30N 38°02' E 023°32'0 0.0
2017-Nov-06 22:00N 38°02' E 023°32'0 0.0
2017-Nov-06 21:30N 38°02' E 023°32'0 0.0
2017-Nov-06 21:00N 38°02' E 023°32'0 0.0
2017-Nov-06 20:30N 38°02' E 023°32'0 0.0
2017-Nov-05 18:54N 38°02' E 023°32'1 2.9
2017-Nov-05 18:30N 38°02' E 023°31'0 0.3
2017-Nov-05 18:01N 38°02' E 023°31'2 0.1
2017-Nov-04 14:49N 38°02' E 023°33'2 7.2
2017-Nov-04 14:30N 38°01' E 023°36'0 0.1
2017-Nov-04 14:00N 38°01' E 023°36'1 1.6
2017-Nov-04 13:30N 38°01' E 023°35'2 4.5
2017-Nov-04 13:00N 38°02' E 023°32'0 0.0
2017-Nov-04 12:30N 38°02' E 023°32'0 0.0
2017-Nov-04 12:00N 38°02' E 023°32'0 0.0
2017-Nov-04 11:30N 38°02' E 023°32'0 0.0
2017-Nov-04 11:00N 38°02' E 023°32'1 2.8
2017-Nov-04 10:30N 38°02' E 023°30'0 0.0
2017-Nov-04 10:00N 38°02' E 023°30'0 0.0
2017-Nov-04 09:30N 38°02' E 023°30'0 0.4
2017-Nov-04 09:00N 38°02' E 023°31'0 0.0
2017-Nov-04 08:30N 38°02' E 023°31'0 0.0
2017-Nov-04 08:00N 38°02' E 023°31'0 0.3
2017-Nov-04 07:30N 38°02' E 023°31'1 1.8
2017-Nov-04 07:00N 38°01' E 023°31'1 0.1
2017-Nov-03 12:36N 38°02' E 023°32'0 0.1
2017-Nov-03 12:30N 38°02' E 023°32'0 0.4
2017-Nov-03 12:00N 38°02' E 023°32'0 0.4
2017-Nov-03 11:30N 38°02' E 023°32'0 0.0
2017-Nov-03 11:00N 38°02' E 023°32'0 0.0
2017-Nov-03 10:30N 38°02' E 023°32'0 0.0
2017-Nov-03 10:00N 38°02' E 023°32'0 0.0
2017-Nov-03 09:30N 38°02' E 023°32'0 0.0
2017-Nov-03 09:00N 38°02' E 023°32'0 0.0
2017-Nov-03 08:30N 38°02' E 023°32'0 0.0
2017-Nov-03 08:00N 38°02' E 023°32'0 0.0
2017-Nov-03 07:30N 38°02' E 023°32'0 0.0
2017-Nov-03 07:00N 38°02' E 023°32'0 0.0
2017-Nov-03 06:30N 38°02' E 023°32'0 0.0
2017-Nov-03 06:00N 38°02' E 023°32'0 0.0
2017-Nov-03 05:30N 38°02' E 023°32'2 4.0
2017-Nov-03 05:00N 38°00' E 023°33'4 7.1
2017-Nov-03 04:30N 37°57' E 023°35'2 4.8
2017-Nov-03 04:00N 37°56' E 023°38'0 0.2
2017-Nov-03 03:30N 37°56' E 023°38'1 1.6
2017-Nov-03 03:01N 37°56' E 023°37'1 1.8
2017-Nov-03 02:30N 37°56' E 023°36'1 1.0
2017-Nov-03 02:00N 37°57' E 023°36'  

Dump ship's entire track history